Time;durP1;ratioP1;P1;durP2;ratioP2;P2;SDS_P1;SDS_P2;PMS_P1;PMS_P2;Temp;Humidity;BMP_temperature;BMP_pressure;BME280_temperature;BME280_humidity;BME280_pressure;Samples;Min_cycle;Max_cycle;Signal;HPM_P1;HPM_P2
2023/08/05 00:01:18;;;;;;;8.43;7.60;;;19.00;55.80;;;;;;5063594;28;20097;-68
2023/08/05 00:03:44;;;;;;;7.80;6.80;;;19.00;55.90;;;;;;5060350;28;20043;-69
2023/08/05 00:06:10;;;;;;;8.20;7.50;;;19.00;55.90;;;;;;5067840;28;20032;-69
2023/08/05 00:08:36;;;;;;;7.93;7.22;;;19.00;56.00;;;;;;5050756;28;20376;-68
2023/08/05 00:11:03;;;;;;;7.75;7.05;;;19.00;56.00;;;;;;5057540;28;20039;-69
2023/08/05 00:13:34;;;;;;;7.45;6.75;;;18.90;55.90;;;;;;5056430;28;20546;-68
2023/08/05 00:16:05;;;;;;;9.00;7.88;;;18.90;55.90;;;;;;5062859;28;20034;-68
2023/08/05 00:18:31;;;;;;;8.88;8.07;;;18.90;56.00;;;;;;5061985;28;20031;-72
2023/08/05 00:20:56;;;;;;;8.32;7.53;;;19.00;56.20;;;;;;5063894;28;20032;-68
2023/08/05 00:23:22;;;;;;;7.97;7.18;;;18.90;56.10;;;;;;5064363;28;20039;-71
2023/08/05 00:25:49;;;;;;;7.95;7.15;;;18.90;56.20;;;;;;5081018;28;20024;-70
2023/08/05 00:28:15;;;;;;;8.18;7.47;;;18.90;56.20;;;;;;5061769;28;20822;-67
2023/08/05 00:30:40;;;;;;;7.75;7.03;;;18.90;56.30;;;;;;5077026;28;20032;-73
2023/08/05 00:33:07;;;;;;;8.50;7.60;;;18.90;56.40;;;;;;5076245;28;20430;-72
2023/08/05 00:35:32;;;;;;;8.50;7.60;;;18.90;56.40;;;;;;5064338;28;20053;-67
2023/08/05 00:37:58;;;;;;;8.43;7.32;;;18.80;56.30;;;;;;5061507;28;20071;-71
2023/08/05 00:40:24;;;;;;;8.82;7.93;;;18.80;56.30;;;;;;5066531;28;20126;-68
2023/08/05 00:42:50;;;;;;;8.93;8.02;;;18.80;56.40;;;;;;5061664;28;20127;-68
2023/08/05 00:45:16;;;;;;;8.82;7.93;;;18.80;56.50;;;;;;5059852;28;20045;-71
2023/08/05 00:47:43;;;;;;;9.23;8.32;;;18.70;56.40;;;;;;5050825;28;20036;-73
2023/08/05 00:50:10;;;;;;;9.60;8.65;;;18.70;56.40;;;;;;5073814;28;20031;-71
2023/08/05 00:52:37;;;;;;;8.65;7.78;;;18.70;56.60;;;;;;5067770;28;20083;-71
2023/08/05 00:55:04;;;;;;;7.93;6.95;;;18.70;56.60;;;;;;5075022;28;20032;-69
2023/08/05 00:57:30;;;;;;;9.38;8.00;;;18.70;56.70;;;;;;5074959;28;20040;-69
2023/08/05 00:59:56;;;;;;;9.20;8.30;;;18.70;57.30;;;;;;5070334;28;20568;-68
2023/08/05 01:02:22;;;;;;;9.38;8.40;;;18.70;56.80;;;;;;5069394;28;20028;-70
2023/08/05 01:04:48;;;;;;;10.63;8.73;;;18.70;56.90;;;;;;5046333;28;20071;-68
2023/08/05 01:07:15;;;;;;;8.68;7.88;;;18.70;57.00;;;;;;5068889;28;20044;-68
2023/08/05 01:09:41;;;;;;;9.02;8.18;;;18.60;56.80;;;;;;5048570;28;20040;-67
2023/08/05 01:12:08;;;;;;;9.32;8.43;;;18.60;56.90;;;;;;5079172;28;20036;-70
2023/08/05 01:14:34;;;;;;;8.38;7.57;;;18.70;57.10;;;;;;5076277;28;20036;-71
2023/08/05 01:17:02;;;;;;;9.30;8.25;;;18.60;57.00;;;;;;5066933;28;20028;-67
2023/08/05 01:19:29;;;;;;;8.07;7.15;;;18.70;57.20;;;;;;5063040;28;20024;-67
2023/08/05 01:22:17;;;;;;;8.90;8.10;;;18.60;57.10;;;;;;5080223;28;20032;-68
2023/08/05 01:25:06;;;;;;;9.65;8.68;;;18.60;57.20;;;;;;5078881;28;20035;-70
2023/08/05 01:27:33;;;;;;;9.32;8.32;;;18.60;57.20;;;;;;5063819;28;20075;-70
2023/08/05 01:30:00;;;;;;;8.98;8.10;;;18.60;57.10;;;;;;5068551;28;20032;-68
2023/08/05 01:32:27;;;;;;;10.25;9.25;;;18.60;57.30;;;;;;5071630;28;20059;-68
2023/08/05 01:34:54;;;;;;;8.07;7.25;;;18.60;57.40;;;;;;5064491;28;20045;-77
2023/08/05 01:37:20;;;;;;;9.73;8.48;;;18.50;57.20;;;;;;5055911;28;20068;-70
2023/08/05 01:39:46;;;;;;;9.35;8.43;;;18.60;57.50;;;;;;5078899;28;20059;-72
2023/08/05 01:42:12;;;;;;;9.43;8.55;;;18.60;57.60;;;;;;5068109;28;20129;-72
2023/08/05 01:44:38;;;;;;;9.48;8.45;;;18.50;57.50;;;;;;5060539;28;20417;-70
2023/08/05 01:47:05;;;;;;;10.77;8.48;;;18.60;57.80;;;;;;5057480;28;20025;-72
2023/08/05 01:49:31;;;;;;;11.27;8.60;;;18.50;57.60;;;;;;5062152;28;20033;-66
2023/08/05 01:51:57;;;;;;;9.63;8.40;;;18.50;57.70;;;;;;5060970;28;20713;-66
2023/08/05 01:54:22;;;;;;;10.40;8.48;;;18.50;57.80;;;;;;5061041;28;20052;-67
2023/08/05 01:56:48;;;;;;;11.02;9.93;;;18.50;57.80;;;;;;5061595;28;20021;-67
2023/08/05 01:59:15;;;;;;;10.00;8.75;;;18.50;57.80;;;;;;5066249;28;20153;-67
2023/08/05 02:01:43;;;;;;;10.30;9.10;;;18.50;57.90;;;;;;5074332;28;20029;-67
2023/08/05 02:04:09;;;;;;;9.65;8.68;;;18.40;57.80;;;;;;5078034;28;20468;-67
2023/08/05 02:06:35;;;;;;;9.48;8.55;;;18.40;57.90;;;;;;5078190;28;20038;-67
2023/08/05 02:09:01;;;;;;;8.48;7.68;;;18.40;57.90;;;;;;5047050;28;20069;-67
2023/08/05 02:11:27;;;;;;;10.15;9.15;;;18.40;58.00;;;;;;5073963;28;20036;-68
2023/08/05 02:13:53;;;;;;;9.50;8.60;;;18.40;58.10;;;;;;5062471;28;20040;-67
2023/08/05 02:16:19;;;;;;;9.02;8.07;;;18.40;58.10;;;;;;5075867;28;20507;-67
2023/08/05 02:18:45;;;;;;;10.52;8.82;;;18.30;58.00;;;;;;5076869;28;20036;-69
2023/08/05 02:21:11;;;;;;;9.85;8.85;;;18.30;58.10;;;;;;5063727;28;20036;-67
2023/08/05 02:23:37;;;;;;;8.80;7.93;;;18.30;58.10;;;;;;5081110;28;20056;-70
2023/08/05 02:26:03;;;;;;;9.80;8.68;;;18.30;58.20;;;;;;5068424;28;20081;-67
2023/08/05 02:28:30;;;;;;;11.18;9.73;;;18.30;58.20;;;;;;5062704;28;20084;-68
2023/08/05 02:30:56;;;;;;;10.38;9.38;;;18.30;58.30;;;;;;5080870;28;20038;-69
2023/08/05 02:33:22;;;;;;;10.93;9.00;;;18.30;58.30;;;;;;5065560;28;20040;-68
2023/08/05 02:35:49;;;;;;;10.70;9.70;;;18.30;58.30;;;;;;5075753;28;20101;-68
2023/08/05 02:38:15;;;;;;;10.82;9.75;;;18.30;58.30;;;;;;5067375;28;20032;-68
2023/08/05 02:40:41;;;;;;;10.27;8.80;;;18.30;58.40;;;;;;5075471;28;20710;-74
2023/08/05 02:43:07;;;;;;;9.65;8.75;;;18.30;58.40;;;;;;5075850;28;20851;-72
2023/08/05 02:45:33;;;;;;;9.68;8.73;;;18.30;58.50;;;;;;5060209;28;20017;-70
2023/08/05 02:48:00;;;;;;;9.00;8.20;;;18.30;58.50;;;;;;5062922;28;20033;-70
2023/08/05 02:50:26;;;;;;;9.63;8.68;;;18.30;58.50;;;;;;5079927;28;20205;-69
2023/08/05 02:52:52;;;;;;;9.40;8.50;;;18.30;58.50;;;;;;5077383;28;20047;-68
2023/08/05 02:55:18;;;;;;;10.27;8.65;;;18.30;58.60;;;;;;5078464;28;20043;-67
2023/08/05 02:57:44;;;;;;;9.38;8.32;;;18.30;58.60;;;;;;5058231;28;20036;-69
2023/08/05 03:00:11;;;;;;;10.60;9.60;;;18.30;58.60;;;;;;5066271;28;20108;-67
2023/08/05 03:02:37;;;;;;;12.68;10.20;;;18.30;58.70;;;;;;5080533;28;20036;-69
2023/08/05 03:05:03;;;;;;;9.77;8.88;;;18.30;58.70;;;;;;5076059;28;20487;-69
2023/08/05 03:07:29;;;;;;;11.15;10.05;;;18.20;58.60;;;;;;5059237;28;20413;-68
2023/08/05 03:09:55;;;;;;;10.95;9.68;;;18.20;58.60;;;;;;5053713;28;20032;-69
2023/08/05 03:12:22;;;;;;;9.73;8.82;;;18.20;58.60;;;;;;5056831;28;20024;-69
2023/08/05 03:14:51;;;;;;;10.02;8.90;;;18.20;58.70;;;;;;5079499;28;20033;-69
2023/08/05 03:17:18;;;;;;;9.18;8.38;;;18.20;58.80;;;;;;5080051;28;20036;-67
2023/08/05 03:19:45;;;;;;;10.18;9.20;;;18.20;58.80;;;;;;5065175;28;20914;-68
2023/08/05 03:22:11;;;;;;;10.18;9.25;;;18.20;58.90;;;;;;5080167;28;20039;-67
2023/08/05 03:24:42;;;;;;;10.35;9.35;;;18.20;59.00;;;;;;5079391;28;20089;-68
2023/08/05 03:27:12;;;;;;;9.80;8.90;;;18.20;59.00;;;;;;5080128;28;20481;-68
2023/08/05 03:29:41;;;;;;;10.85;9.68;;;18.10;58.80;;;;;;5071977;28;20052;-67
2023/08/05 03:32:09;;;;;;;10.45;9.27;;;18.20;59.10;;;;;;5066107;28;20447;-73
2023/08/05 03:34:36;;;;;;;10.45;9.35;;;18.20;59.20;;;;;;5066410;28;20044;-71
2023/08/05 03:37:03;;;;;;;10.98;9.85;;;18.10;59.10;;;;;;5062792;28;20029;-71
2023/08/05 03:39:30;;;;;;;10.07;9.07;;;18.10;59.20;;;;;;5070066;28;20036;-71
2023/08/05 03:41:56;;;;;;;10.77;9.15;;;18.10;59.80;;;;;;5068955;28;20138;-70
2023/08/05 03:44:22;;;;;;;10.30;9.30;;;18.10;59.30;;;;;;5061989;28;20092;-70
2023/08/05 03:46:49;;;;;;;9.90;8.93;;;18.10;59.30;;;;;;5049284;28;20025;-67
2023/08/05 03:49:14;;;;;;;9.98;8.98;;;18.10;59.40;;;;;;5067092;28;20456;-68
2023/08/05 03:51:40;;;;;;;10.57;9.10;;;18.00;59.30;;;;;;5078816;28;20120;-68
2023/08/05 03:54:07;;;;;;;11.70;10.40;;;18.00;59.40;;;;;;5081787;28;20039;-69
2023/08/05 03:56:35;;;;;;;11.38;10.18;;;18.00;59.50;;;;;;5080767;28;20177;-68
2023/08/05 03:59:02;;;;;;;10.95;9.80;;;18.00;59.60;;;;;;5071166;28;20029;-71
2023/08/05 04:01:30;;;;;;;11.38;10.30;;;18.00;59.70;;;;;;5065161;28;20017;-71
2023/08/05 04:03:56;;;;;;;10.73;9.55;;;17.90;59.60;;;;;;5071086;28;20028;-69
2023/08/05 04:06:25;;;;;;;11.07;9.98;;;17.90;59.70;;;;;;5076058;28;20060;-69
2023/08/05 04:08:53;;;;;;;10.48;9.43;;;17.90;59.80;;;;;;5055161;28;20681;-68
2023/08/05 04:11:20;;;;;;;11.13;9.15;;;17.90;59.90;;;;;;5071757;28;20032;-67
2023/08/05 04:13:47;;;;;;;11.07;9.77;;;17.80;59.80;;;;;;5053595;28;20060;-67
2023/08/05 04:16:16;;;;;;;11.13;10.02;;;17.90;60.10;;;;;;5063740;28;20033;-73
2023/08/05 04:18:43;;;;;;;9.95;8.57;;;17.80;60.00;;;;;;5061388;28;20055;-71
2023/08/05 04:21:10;;;;;;;10.02;8.95;;;17.80;60.00;;;;;;5062987;28;20033;-69
2023/08/05 04:23:38;;;;;;;10.68;8.30;;;17.80;60.10;;;;;;5060999;28;20048;-69
2023/08/05 04:26:06;;;;;;;10.50;9.35;;;17.80;60.20;;;;;;5060351;28;20044;-70
2023/08/05 04:28:33;;;;;;;11.07;9.10;;;17.70;60.10;;;;;;5064172;28;20524;-70
2023/08/05 04:30:59;;;;;;;9.10;8.23;;;17.70;60.20;;;;;;5063681;28;20074;-68
2023/08/05 04:33:26;;;;;;;9.35;8.45;;;17.70;60.20;;;;;;5062205;28;20213;-70
2023/08/05 04:35:52;;;;;;;9.07;8.15;;;17.70;60.80;;;;;;5062715;28;20696;-70
2023/08/05 04:38:18;;;;;;;9.77;8.70;;;17.70;60.30;;;;;;5060489;28;20075;-67
2023/08/05 04:40:45;;;;;;;9.95;8.27;;;17.70;60.40;;;;;;5053889;28;20812;-70
2023/08/05 04:43:12;;;;;;;10.25;9.23;;;17.70;60.50;;;;;;5057760;28;20075;-68
2023/08/05 04:45:38;;;;;;;8.38;7.57;;;17.70;60.50;;;;;;5063431;28;20585;-70
2023/08/05 04:48:07;;;;;;;8.40;7.60;;;17.70;60.60;;;;;;5057731;28;20051;-70
2023/08/05 04:50:37;;;;;;;8.68;7.82;;;17.60;60.50;;;;;;5064616;28;20051;-68
2023/08/05 04:53:05;;;;;;;8.55;7.72;;;17.60;60.50;;;;;;5060732;28;20144;-72
2023/08/05 04:55:31;;;;;;;9.10;7.47;;;17.60;60.50;;;;;;5061337;28;20084;-71
2023/08/05 04:57:57;;;;;;;8.70;7.80;;;17.60;60.60;;;;;;5062473;28;20115;-71
2023/08/05 05:00:25;;;;;;;8.65;7.82;;;17.60;60.60;;;;;;5063403;28;20127;-72
2023/08/05 05:02:51;;;;;;;7.80;6.97;;;17.60;60.70;;;;;;5062114;28;20522;-70
2023/08/05 05:05:18;;;;;;;8.32;7.53;;;17.50;60.50;;;;;;5059963;28;20032;-69
2023/08/05 05:07:43;;;;;;;8.68;7.20;;;17.50;60.60;;;;;;5053057;28;20059;-70
2023/08/05 05:10:10;;;;;;;7.78;7.03;;;17.50;60.60;;;;;;5052605;28;20505;-68
2023/08/05 05:12:36;;;;;;;8.52;7.72;;;17.50;60.70;;;;;;5072505;28;20143;-68
2023/08/05 05:15:02;;;;;;;7.88;7.10;;;17.50;60.70;;;;;;5081013;28;20111;-69
2023/08/05 05:17:34;;;;;;;7.40;6.65;;;17.50;60.70;;;;;;5070629;28;20097;-69
2023/08/05 05:20:04;;;;;;;11.20;7.18;;;17.50;60.80;;;;;;5063017;28;20103;-69
2023/08/05 05:22:31;;;;;;;8.38;6.70;;;17.40;60.80;;;;;;5072454;28;20042;-68
2023/08/05 05:24:57;;;;;;;9.20;7.20;;;17.50;61.50;;;;;;5070082;28;20101;-69
2023/08/05 05:27:23;;;;;;;9.10;7.95;;;17.40;61.80;;;;;;5075531;28;20028;-68
2023/08/05 05:29:49;;;;;;;11.27;7.57;;;17.40;62.20;;;;;;5072980;28;20043;-68
2023/08/05 05:32:15;;;;;;;8.88;7.18;;;17.50;62.60;;;;;;5072261;28;20047;-68
2023/08/05 05:34:41;;;;;;;10.52;7.32;;;17.50;62.90;;;;;;5064277;28;20492;-69
2023/08/05 05:37:09;;;;;;;12.27;8.68;;;17.50;63.20;;;;;;5058145;28;20051;-69
2023/08/05 05:39:35;;;;;;;12.55;7.57;;;17.60;63.80;;;;;;5075058;28;20035;-68
2023/08/05 05:42:01;;;;;;;9.60;7.05;;;17.60;63.90;;;;;;5073264;28;20028;-68
2023/08/05 05:44:28;;;;;;;7.53;6.65;;;17.60;64.00;;;;;;5065670;28;20484;-68
2023/08/05 05:46:54;;;;;;;9.32;6.57;;;17.70;64.30;;;;;;5067510;28;20032;-68
2023/08/05 05:49:20;;;;;;;9.38;6.75;;;17.70;64.40;;;;;;5061550;28;20508;-67
2023/08/05 05:51:47;;;;;;;7.97;6.97;;;17.80;64.70;;;;;;5055992;28;20028;-69
2023/08/05 05:54:13;;;;;;;6.22;5.63;;;17.80;64.80;;;;;;5065028;28;20067;-68
2023/08/05 05:56:39;;;;;;;9.57;5.68;;;17.80;64.90;;;;;;5063085;28;20575;-69
2023/08/05 05:59:05;;;;;;;6.70;4.47;;;17.90;65.20;;;;;;5056590;28;20091;-68
2023/08/05 06:01:31;;;;;;;4.70;4.28;;;17.90;65.80;;;;;;5070204;28;20829;-75
2023/08/05 06:03:57;;;;;;;6.05;4.63;;;18.00;65.50;;;;;;5059846;28;20040;-70
2023/08/05 06:06:23;;;;;;;6.05;4.70;;;18.00;65.50;;;;;;5058178;28;20024;-68
2023/08/05 06:08:49;;;;;;;5.13;4.35;;;18.10;65.70;;;;;;5054078;28;20036;-68
2023/08/05 06:11:15;;;;;;;5.05;4.20;;;18.10;65.70;;;;;;5051059;28;20440;-70
2023/08/05 06:13:41;;;;;;;5.53;3.80;;;18.10;65.70;;;;;;5057801;28;20043;-67
2023/08/05 06:16:07;;;;;;;3.80;3.40;;;18.20;65.80;;;;;;5058490;28;20139;-67
2023/08/05 06:18:33;;;;;;;2.47;2.20;;;18.30;65.90;;;;;;5062200;28;20036;-67
2023/08/05 06:20:58;;;;;;;4.55;3.30;;;18.30;65.80;;;;;;5060800;28;20032;-67
2023/08/05 06:23:24;;;;;;;2.15;1.80;;;18.40;65.80;;;;;;5057297;28;20715;-68
2023/08/05 06:25:50;;;;;;;2.00;1.80;;;18.40;65.80;;;;;;5058755;28;20032;-71
2023/08/05 06:28:16;;;;;;;3.92;1.60;;;18.40;65.80;;;;;;5058756;28;20074;-72
2023/08/05 06:30:46;;;;;;;3.00;1.63;;;18.40;65.70;;;;;;5056801;28;20847;-74
2023/08/05 06:33:12;;;;;;;4.03;1.83;;;18.50;65.70;;;;;;5058195;28;20043;-68
2023/08/05 06:35:39;;;;;;;2.25;1.45;;;18.40;65.50;;;;;;5060207;28;20053;-73
2023/08/05 06:38:05;;;;;;;2.13;1.50;;;18.50;65.60;;;;;;5056697;28;20047;-76
2023/08/05 06:40:31;;;;;;;2.95;1.45;;;18.60;65.70;;;;;;5060293;28;20024;-70
2023/08/05 06:42:57;;;;;;;2.75;1.20;;;18.60;65.60;;;;;;5055782;28;20032;-79
2023/08/05 06:45:23;;;;;;;2.05;1.50;;;18.70;65.70;;;;;;5056422;28;20561;-71
2023/08/05 06:47:49;;;;;;;2.03;1.27;;;18.70;65.70;;;;;;5058129;28;20068;-68
2023/08/05 06:50:15;;;;;;;3.33;1.15;;;18.80;65.80;;;;;;5048829;28;20039;-74
2023/08/05 06:52:41;;;;;;;2.55;0.95;;;18.80;65.70;;;;;;5061690;28;20044;-72
2023/08/05 06:55:08;;;;;;;1.83;1.00;;;18.80;65.70;;;;;;5058618;28;20063;-72
2023/08/05 06:57:35;;;;;;;2.63;2.08;;;18.90;65.80;;;;;;5056235;28;20041;-75
2023/08/05 07:00:01;;;;;;;2.75;1.00;;;19.00;65.90;;;;;;5057124;28;20033;-68
2023/08/05 07:02:27;;;;;;;1.42;1.23;;;19.00;65.80;;;;;;5057052;28;20069;-69
2023/08/05 07:04:53;;;;;;;1.27;1.00;;;19.10;65.90;;;;;;5058611;28;20040;-68
2023/08/05 07:07:19;;;;;;;1.50;0.90;;;19.10;65.80;;;;;;5053722;28;20033;-72
2023/08/05 07:09:46;;;;;;;1.58;0.80;;;19.20;66.10;;;;;;5054374;28;20046;-67
2023/08/05 07:12:12;;;;;;;4.43;0.80;;;19.20;66.10;;;;;;5057295;28;20082;-67
2023/08/05 07:14:38;;;;;;;4.43;1.15;;;19.30;66.20;;;;;;5061529;28;20078;-68
2023/08/05 07:17:05;;;;;;;2.95;0.75;;;19.40;66.10;;;;;;5057304;28;20107;-68
2023/08/05 07:19:31;;;;;;;1.30;1.20;;;19.50;66.20;;;;;;5042277;28;20092;-68
2023/08/05 07:21:58;;;;;;;0.88;0.77;;;19.70;66.40;;;;;;5058194;28;20177;-69
2023/08/05 07:24:24;;;;;;;2.25;0.98;;;19.80;66.40;;;;;;5053214;28;20040;-68
2023/08/05 07:26:50;;;;;;;1.15;0.82;;;19.90;66.30;;;;;;5059219;28;20572;-69
2023/08/05 07:29:16;;;;;;;1.65;1.00;;;20.00;66.20;;;;;;5063532;28;20033;-68
2023/08/05 07:31:42;;;;;;;1.23;1.13;;;20.10;66.10;;;;;;5063383;28;20059;-70
2023/08/05 07:34:09;;;;;;;1.00;0.93;;;20.20;66.10;;;;;;5062390;28;20052;-71
2023/08/05 07:36:36;;;;;;;3.10;0.75;;;20.30;66.70;;;;;;5063870;28;20086;-69
2023/08/05 07:39:06;;;;;;;2.50;0.70;;;20.30;65.90;;;;;;5058478;28;20573;-67
2023/08/05 07:41:32;;;;;;;2.88;0.68;;;20.40;65.80;;;;;;5061085;28;20033;-68
2023/08/05 07:44:00;;;;;;;0.80;0.57;;;20.40;65.70;;;;;;5063216;28;20562;-67
2023/08/05 07:46:30;;;;;;;0.70;0.60;;;20.40;65.70;;;;;;5057741;28;20054;-68
2023/08/05 07:48:58;;;;;;;0.43;0.43;;;20.40;65.70;;;;;;5065005;28;20033;-68
2023/08/05 07:51:25;;;;;;;1.05;0.57;;;20.40;65.80;;;;;;5063068;28;20124;-70
2023/08/05 07:53:53;;;;;;;1.77;0.63;;;20.40;65.70;;;;;;5067013;28;20085;-69
2023/08/05 07:56:20;;;;;;;3.50;0.63;;;20.50;65.90;;;;;;5075882;28;20214;-68
2023/08/05 07:58:46;;;;;;;1.20;0.50;;;20.50;65.80;;;;;;5065932;28;20036;-67
2023/08/05 08:01:13;;;;;;;1.13;0.63;;;20.50;65.70;;;;;;5063060;28;20117;-68
2023/08/05 08:03:43;;;;;;;0.93;0.50;;;20.50;65.80;;;;;;5062644;28;20032;-70
2023/08/05 08:06:14;;;;;;;2.65;1.15;;;20.40;65.70;;;;;;5060558;28;20067;-67
2023/08/05 08:08:40;;;;;;;1.20;0.63;;;20.40;65.80;;;;;;5053209;28;20519;-66
2023/08/05 08:11:06;;;;;;;1.00;0.40;;;20.30;65.70;;;;;;5061314;28;20032;-67
2023/08/05 08:13:32;;;;;;;1.02;0.50;;;20.40;66.00;;;;;;5063124;28;20595;-67
2023/08/05 08:15:58;;;;;;;1.67;0.70;;;20.30;65.90;;;;;;5060194;28;20033;-67
2023/08/05 08:18:24;;;;;;;0.68;0.43;;;20.40;66.00;;;;;;5065438;28;20165;-67
2023/08/05 08:20:51;;;;;;;2.15;0.43;;;20.40;65.90;;;;;;5070696;28;20901;-69
2023/08/05 08:23:18;;;;;;;1.05;0.60;;;20.50;66.50;;;;;;5052873;28;20055;-80
2023/08/05 08:25:45;;;;;;;1.30;0.43;;;20.50;65.70;;;;;;5051722;28;20032;-69
2023/08/05 08:28:11;;;;;;;1.98;0.50;;;20.60;65.70;;;;;;5064769;28;20036;-69
2023/08/05 08:30:37;;;;;;;1.92;0.45;;;20.70;65.70;;;;;;5067628;28;20125;-68
2023/08/05 08:33:03;;;;;;;1.45;0.60;;;20.70;65.60;;;;;;5059066;28;20103;-71
2023/08/05 08:35:30;;;;;;;1.15;0.75;;;20.80;65.60;;;;;;5057614;28;20117;-71
2023/08/05 08:37:56;;;;;;;0.80;0.50;;;20.80;65.50;;;;;;5048625;28;20143;-68
2023/08/05 08:40:22;;;;;;;1.13;0.45;;;20.90;65.60;;;;;;5065519;28;20365;-68
2023/08/05 08:42:52;;;;;;;0.98;0.57;;;20.90;65.60;;;;;;5078347;28;20032;-68
2023/08/05 08:45:20;;;;;;;0.85;0.30;;;21.00;65.70;;;;;;5060753;28;20646;-69
2023/08/05 08:47:47;;;;;;;1.50;0.57;;;21.00;65.60;;;;;;5065912;28;20132;-68
2023/08/05 08:50:15;;;;;;;2.20;0.55;;;21.00;65.60;;;;;;5056578;28;20464;-71
2023/08/05 08:52:44;;;;;;;2.67;0.40;;;21.10;65.70;;;;;;5065659;28;20066;-69
2023/08/05 08:55:13;;;;;;;0.43;0.43;;;21.20;65.70;;;;;;5069942;28;20047;-73
2023/08/05 08:57:39;;;;;;;0.73;0.63;;;21.30;65.60;;;;;;5057245;28;20204;-78
2023/08/05 09:00:05;;;;;;;0.63;0.60;;;21.50;65.60;;;;;;5069553;28;20028;-77
2023/08/05 09:02:32;;;;;;;0.63;0.63;;;21.60;65.60;;;;;;5070696;28;20043;-68
2023/08/05 09:04:58;;;;;;;0.77;0.40;;;21.60;65.40;;;;;;5061974;28;20043;-70
2023/08/05 09:07:27;;;;;;;1.15;0.30;;;21.70;65.50;;;;;;5065991;28;20734;-72
2023/08/05 09:09:53;;;;;;;0.32;0.30;;;21.70;65.50;;;;;;5062580;28;20033;-71
2023/08/05 09:12:20;;;;;;;3.13;0.80;;;21.70;65.50;;;;;;5063646;28;20055;-71
2023/08/05 09:14:53;;;;;;;1.42;0.52;;;21.70;65.50;;;;;;5059707;28;20040;-71
2023/08/05 09:17:19;;;;;;;1.23;0.70;;;21.70;65.60;;;;;;5059396;28;20032;-69
2023/08/05 09:19:44;;;;;;;3.25;0.50;;;21.70;65.60;;;;;;5069173;28;20035;-71
2023/08/05 09:22:10;;;;;;;0.30;0.30;;;21.70;65.60;;;;;;5055774;28;20161;-70
2023/08/05 09:24:36;;;;;;;1.95;0.75;;;21.70;65.60;;;;;;5055722;28;20054;-70
2023/08/05 09:27:02;;;;;;;1.38;0.30;;;21.80;65.60;;;;;;5061531;28;20471;-70
2023/08/05 09:29:28;;;;;;;2.55;0.30;;;21.80;65.70;;;;;;5060683;28;20028;-71
2023/08/05 09:31:58;;;;;;;0.85;0.50;;;21.80;65.70;;;;;;5066274;28;20044;-73
2023/08/05 09:34:31;;;;;;;2.45;0.70;;;21.80;65.80;;;;;;5066799;28;20063;-70
2023/08/05 09:36:57;;;;;;;;;;;21.80;65.80;;;;;;5064183;28;20029;-68
2023/08/05 09:39:23;;;;;;;1.90;0.30;;;21.80;65.70;;;;;;5057379;28;19913;-67
2023/08/05 09:41:53;;;;;;;1.98;0.40;;;21.80;65.60;;;;;;5066079;28;20040;-67
2023/08/05 09:44:19;;;;;;;1.05;0.30;;;21.70;65.60;;;;;;5066524;28;20062;-70
2023/08/05 09:46:46;;;;;;;0.93;0.50;;;21.70;65.70;;;;;;5054253;28;20897;-67
2023/08/05 09:49:17;;;;;;;0.63;0.30;;;21.70;65.80;;;;;;5067941;28;20036;-67
2023/08/05 09:51:45;;;;;;;1.27;0.40;;;21.70;65.80;;;;;;5056698;28;20541;-68
2023/08/05 09:54:17;;;;;;;0.40;0.30;;;21.80;65.90;;;;;;5057034;28;20334;-68
2023/08/05 09:56:44;;;;;;;1.88;0.52;;;21.90;65.90;;;;;;5073421;28;20387;-68
2023/08/05 09:59:12;;;;;;;0.85;0.52;;;21.90;65.70;;;;;;5072694;28;20236;-67
2023/08/05 10:01:40;;;;;;;1.98;0.52;;;21.90;65.70;;;;;;5073946;28;20038;-67
2023/08/05 10:04:08;;;;;;;2.67;0.50;;;22.00;65.80;;;;;;5074863;28;20035;-70
2023/08/05 10:06:38;;;;;;;1.27;0.45;;;22.20;65.90;;;;;;5076661;28;20122;-68
2023/08/05 10:09:04;;;;;;;4.50;1.65;;;22.50;65.90;;;;;;5057517;28;20569;-69
2023/08/05 10:11:31;;;;;;;4.78;1.67;;;22.80;65.80;;;;;;5074704;28;20035;-67
2023/08/05 10:14:00;;;;;;;4.47;1.48;;;23.10;65.80;;;;;;5063895;28;20040;-71
2023/08/05 10:16:26;;;;;;;3.40;0.77;;;23.50;65.60;;;;;;5071261;28;20251;-69
2023/08/05 10:18:52;;;;;;;3.55;1.42;;;23.70;65.20;;;;;;5064718;28;20064;-67
2023/08/05 10:21:38;;;;;;;3.38;1.23;;;23.80;65.60;;;;;;5067131;28;20083;-74
2023/08/05 10:24:04;;;;;;;5.13;1.00;;;23.80;64.90;;;;;;5059559;28;20097;-72
2023/08/05 10:26:42;;;;;;;4.70;1.02;;;23.70;64.90;;;;;;5069823;28;20035;-68
2023/08/05 10:29:30;;;;;;;2.70;1.20;;;23.60;64.80;;;;;;5064100;28;20130;-76
2023/08/05 10:32:14;;;;;;;4.05;0.90;;;23.50;64.70;;;;;;5061665;28;20120;-72
2023/08/05 10:34:40;;;;;;;6.13;1.40;;;23.50;64.80;;;;;;5064641;28;20566;-70
2023/08/05 10:37:06;;;;;;;3.40;1.23;;;23.50;64.90;;;;;;5056537;28;20025;-66
2023/08/05 10:39:44;;;;;;;6.32;1.50;;;23.50;64.80;;;;;;5073282;28;20375;-67
2023/08/05 10:42:35;;;;;;;3.60;1.35;;;23.60;64.90;;;;;;5080105;28;20069;-73
2023/08/05 10:45:05;;;;;;;5.45;1.23;;;23.60;64.90;;;;;;5056373;28;20052;-73
2023/08/05 10:47:31;;;;;;;5.18;1.17;;;23.70;64.80;;;;;;5049615;28;20127;-68
2023/08/05 10:50:01;;;;;;;3.05;0.88;;;23.70;64.70;;;;;;5045821;28;20033;-72
2023/08/05 10:52:27;;;;;;;4.13;1.38;;;23.80;64.80;;;;;;5060905;28;20040;-70
2023/08/05 10:54:53;;;;;;;5.28;1.27;;;23.80;64.60;;;;;;5062395;28;20032;-68
2023/08/05 10:57:43;;;;;;;5.47;1.05;;;23.90;64.70;;;;;;5058130;28;20388;-67
2023/08/05 11:00:18;;;;;;;4.57;1.10;;;24.00;64.70;;;;;;5063606;28;20028;-70
2023/08/05 11:02:44;;;;;;;5.40;1.63;;;24.00;64.60;;;;;;5062700;28;20037;-72
2023/08/05 11:05:10;;;;;;;10.57;2.50;;;24.10;64.60;;;;;;5068325;28;20131;-73
2023/08/05 11:07:37;;;;;;;13.40;3.35;;;24.10;64.70;;;;;;5065446;28;20093;-71
2023/08/05 11:10:07;;;;;;;13.13;3.67;;;24.30;65.40;;;;;;5060832;28;20032;-71
2023/08/05 11:12:33;;;;;;;11.43;4.18;;;24.50;65.70;;;;;;5061655;28;20048;-68
2023/08/05 11:15:00;;;;;;;12.30;3.90;;;24.60;65.70;;;;;;5062236;28;20036;-67
2023/08/05 11:17:26;;;;;;;10.05;4.05;;;24.80;66.20;;;;;;5068437;28;20534;-70
2023/08/05 11:19:53;;;;;;;15.40;5.28;;;24.90;66.40;;;;;;5065713;28;20032;-73
2023/08/05 11:22:30;;;;;;;7.47;3.53;;;24.90;66.60;;;;;;5074068;28;20032;-68
2023/08/05 11:25:00;;;;;;;7.70;2.65;;;24.90;66.70;;;;;;5064977;28;20055;-68
2023/08/05 11:27:29;;;;;;;7.43;2.58;;;25.00;66.70;;;;;;5068923;28;20032;-75
2023/08/05 11:29:55;;;;;;;6.63;2.38;;;25.10;66.40;;;;;;5059665;28;20029;-67
2023/08/05 11:32:21;;;;;;;4.90;2.10;;;25.20;66.30;;;;;;5067633;28;20032;-72
2023/08/05 11:34:49;;;;;;;5.93;2.50;;;25.30;66.00;;;;;;5065015;28;20381;-67
2023/08/05 11:37:15;;;;;;;8.68;2.45;;;25.40;65.90;;;;;;5064608;28;20105;-69
2023/08/05 11:39:41;;;;;;;6.32;2.30;;;25.50;65.70;;;;;;5062910;28;20234;-70
2023/08/05 11:42:07;;;;;;;5.20;2.13;;;25.50;65.40;;;;;;5072022;28;20028;-67
2023/08/05 11:44:33;;;;;;;5.85;1.83;;;25.60;65.40;;;;;;5065658;28;20028;-69
2023/08/05 11:47:03;;;;;;;6.82;2.63;;;25.60;65.30;;;;;;5062732;28;20515;-68
2023/08/05 11:49:29;;;;;;;3.95;1.73;;;25.70;65.20;;;;;;5062574;28;20136;-68
2023/08/05 11:51:55;;;;;;;3.35;2.05;;;25.80;65.10;;;;;;5055865;28;20048;-68
2023/08/05 11:54:34;;;;;;;5.88;2.10;;;25.90;64.90;;;;;;5072108;28;20034;-71
2023/08/05 11:57:00;;;;;;;3.67;1.55;;;26.00;64.70;;;;;;5073550;28;20043;-72
2023/08/05 11:59:46;;;;;;;4.93;1.85;;;25.90;64.60;;;;;;5058730;28;20411;-70
2023/08/05 12:02:13;;;;;;;2.00;1.50;;;25.90;64.70;;;;;;5064462;28;20067;-69
2023/08/05 12:05:05;;;;;;;3.40;1.58;;;25.70;64.70;;;;;;5060109;28;20113;-69
2023/08/05 12:07:31;;;;;;;4.75;2.00;;;25.70;64.80;;;;;;5061536;28;20214;-72
2023/08/05 12:10:05;;;;;;;4.47;1.77;;;25.60;65.00;;;;;;5057425;28;20028;-68
2023/08/05 12:12:31;;;;;;;3.13;1.65;;;25.60;64.90;;;;;;5061099;28;20040;-70
2023/08/05 12:15:17;;;;;;;3.10;2.38;;;25.70;64.80;;;;;;5044462;28;20138;-72
2023/08/05 12:17:51;;;;;;;2.35;1.50;;;25.90;64.60;;;;;;5059640;28;20137;-70
2023/08/05 12:20:19;;;;;;;2.85;1.45;;;26.30;64.10;;;;;;5056987;28;20187;-67
2023/08/05 12:22:46;;;;;;;2.05;1.27;;;26.70;63.50;;;;;;5057207;28;20040;-69
2023/08/05 12:25:16;;;;;;;2.45;1.58;;;27.00;62.80;;;;;;5057237;28;20036;-70
2023/08/05 12:27:44;;;;;;;1.90;1.60;;;27.20;62.30;;;;;;5058783;28;20514;-67
2023/08/05 12:30:12;;;;;;;1.88;1.25;;;27.30;62.00;;;;;;5060583;28;20041;-75
2023/08/05 12:32:39;;;;;;;3.80;1.77;;;27.40;61.80;;;;;;5056049;28;20317;-68
2023/08/05 12:35:10;;;;;;;2.33;1.20;;;27.50;61.50;;;;;;5059225;28;20056;-71
2023/08/05 12:37:38;;;;;;;3.50;1.30;;;27.70;61.20;;;;;;5056508;28;20435;-68
2023/08/05 12:40:09;;;;;;;2.00;1.00;;;27.80;61.00;;;;;;5059678;28;20105;-70
2023/08/05 12:42:36;;;;;;;1.67;0.88;;;27.60;60.90;;;;;;5057832;28;20113;-67
2023/08/05 12:45:03;;;;;;;2.60;0.70;;;27.50;61.00;;;;;;5058878;28;20033;-68
2023/08/05 12:47:30;;;;;;;2.85;0.80;;;27.30;61.20;;;;;;5060007;28;20071;-68